This is the latest recevied weather packets stored in our database for station/object DL1VED. If no packets are shown the sender has not sent any weather packets the latest 1 day(s).
| Time | Temp. | Humidity | Pressure | Rain* | Wind** | Luminosity | Snow |
|---|---|---|---|---|---|---|---|
| 1836274443 | 12.78° C | 82% | 1016.8 hPa | 0 mm | 0 m/s | - | - |
| 1836274293 | 12.78° C | 82% | 1016.6 hPa | 0 mm | 0 m/s | - | - |
| 1778017447 | 13.33° C | 87% | 1006.2 hPa | 3.56 mm | 0 m/s | - | - |
| 1778016547 | 13.33° C | 86% | 1006.3 hPa | 4.32 mm | 0 m/s | - | - |
| 1778015647 | 13.33° C | 86% | 1006.3 hPa | 3.3 mm | 0 m/s | - | - |
| 1778014747 | 13.33° C | 86% | 1006.3 hPa | 3.05 mm | 0 m/s | - | - |
| 1778013847 | 13.33° C | 86% | 1006.3 hPa | 1.78 mm | 0 m/s | - | - |
| 1778012947 | 13.33° C | 85% | 1006.4 hPa | 0.76 mm | 0 m/s | - | - |
| 1778012047 | 13.33° C | 86% | 1006.4 hPa | 0.51 mm | 0 m/s | - | - |
| 1778011199 | 13.33° C | 86% | 1006.4 hPa | 0.25 mm | 0 m/s | - | - |
| 1778011147 | 13.33° C | 86% | 1006.4 hPa | 0.25 mm | 0 m/s | - | - |
| 1778010247 | 13.89° C | 86% | 1006.4 hPa | 0.25 mm | 0 m/s | - | - |
| 1778009347 | 13.89° C | 86% | 1006.3 hPa | 0.25 mm | 0 m/s | - | - |
| 1778008447 | 13.89° C | 85% | 1006.2 hPa | 0 mm | 0 m/s | - | - |
| 1778007547 | 13.89° C | 84% | 1006.2 hPa | 0 mm | 0 m/s | - | - |
| 1778006647 | 14.44° C | 82% | 1006.3 hPa | 0 mm | 0 m/s | - | - |
| 1778005747 | 14.44° C | 82% | 1006.2 hPa | 0 mm | 0 m/s | - | - |
| 1778004847 | 15° C | 82% | 1006.3 hPa | 0 mm | 0 m/s | - | - |
| 1778003947 | 15° C | 81% | 1006.3 hPa | 0 mm | 0 m/s | - | - |
| 1778003048 | 15° C | 81% | 1006.3 hPa | 0.25 mm | 0 m/s | - | - |
| 1778002148 | 15° C | 81% | 1006.3 hPa | 0.25 mm | 0 m/s | - | - |
| 1778001247 | 15° C | 81% | 1006.4 hPa | 0.25 mm | 0 m/s | - | - |
| 1778000348 | 15° C | 81% | 1006.4 hPa | 0.25 mm | 0 m/s | - | - |
| 1777999448 | 15° C | 81% | 1006.4 hPa | 0 mm | 0 m/s | - | - |
| 1777998548 | 15° C | 80% | 1006.5 hPa | 0.25 mm | 0 m/s | - | - |
* Rain latest hour (hover to see other rain measurements)
** Current wind speed in m/s (hover to see current wind gust speed)